FD822 YPAD-YKSC
Flight info
| Callsign | FD822 |
|---|---|
| Flight time | 0h 23m |
| Altitude | 7000 |
| Route | AD V504 VAVPA |
| Aircraft | BE20/M-SDFGRWY/LB1 |
Departure
| Time | 2026-05-04 05:34 |
|---|---|
| Airport | Adelaide International Airport (YPAD) |
Arrival
| Time | 2026-05-04 05:57 |
|---|---|
| Airport | Kingscote Airport (YKSC) |
| Time | Latitude | Longitude | Altitude | Speed | Heading |
|---|---|---|---|---|---|
| 2026-05-04 05:13 | -34.95073 | 138.52155 | 21 ft | 0 kts | 229° |
| 2026-05-04 05:29 | -34.95083 | 138.52144 | 24 ft | 6 kts | 207° |
| 2026-05-04 05:31 | -34.94772 | 138.52698 | 23 ft | 34 kts | 36° |
| 2026-05-04 05:31 | -34.94579 | 138.52879 | 21 ft | 28 kts | 38° |
| 2026-05-04 05:32 | -34.94482 | 138.52970 | 21 ft | 14 kts | 37° |
| 2026-05-04 05:32 | -34.94451 | 138.53104 | 23 ft | 23 kts | 122° |
| 2026-05-04 05:32 | -34.94525 | 138.53277 | 21 ft | 14 kts | 89° |
| 2026-05-04 05:33 | -34.94593 | 138.53521 | 21 ft | 18 kts | 175° |
| 2026-05-04 05:33 | -34.94696 | 138.53405 | 23 ft | 36 kts | 231° |
| 2026-05-04 05:33 | -34.95012 | 138.52950 | 87 ft | 95 kts | 231° |
| 2026-05-04 05:33 | -34.95496 | 138.52278 | 527 ft | 114 kts | 234° |
| 2026-05-04 05:34 | -34.96015 | 138.51514 | 1070 ft | 125 kts | 232° |
| 2026-05-04 05:34 | -34.96620 | 138.50629 | 1559 ft | 138 kts | 230° |
| 2026-05-04 05:34 | -34.97224 | 138.49854 | 2500 ft | 117 kts | 226° |
| 2026-05-04 05:34 | -34.97849 | 138.49198 | 3091 ft | 122 kts | 221° |
| 2026-05-04 05:35 | -34.98566 | 138.48462 | 3417 ft | 135 kts | 224° |
| 2026-05-04 05:35 | -34.99226 | 138.47657 | 3992 ft | 135 kts | 230° |
| 2026-05-04 05:35 | -34.99859 | 138.46812 | 4558 ft | 136 kts | 230° |
| 2026-05-04 05:35 | -35.00500 | 138.45963 | 5133 ft | 136 kts | 230° |
| 2026-05-04 05:36 | -35.01143 | 138.45105 | 5700 ft | 138 kts | 230° |
| 2026-05-04 05:36 | -35.01791 | 138.44237 | 6273 ft | 139 kts | 230° |
| 2026-05-04 05:36 | -35.02445 | 138.43361 | 6793 ft | 141 kts | 230° |
| 2026-05-04 05:36 | -35.03145 | 138.42418 | 6998 ft | 163 kts | 230° |
| 2026-05-04 05:37 | -35.03958 | 138.41322 | 7013 ft | 184 kts | 230° |
| 2026-05-04 05:37 | -35.04847 | 138.40130 | 7012 ft | 194 kts | 229° |
| 2026-05-04 05:37 | -35.05766 | 138.38896 | 7010 ft | 199 kts | 229° |
| 2026-05-04 05:38 | -35.07638 | 138.36384 | 7012 ft | 202 kts | 229° |
| 2026-05-04 05:38 | -35.08586 | 138.35109 | 7013 ft | 203 kts | 229° |
| 2026-05-04 05:38 | -35.09539 | 138.33828 | 7011 ft | 204 kts | 229° |
| 2026-05-04 05:38 | -35.10494 | 138.32544 | 7008 ft | 204 kts | 230° |
| 2026-05-04 05:39 | -35.11446 | 138.31264 | 7005 ft | 204 kts | 229° |
| 2026-05-04 05:39 | -35.13351 | 138.28699 | 7001 ft | 203 kts | 229° |
| 2026-05-04 05:39 | -35.14302 | 138.27419 | 7001 ft | 203 kts | 230° |
| 2026-05-04 05:40 | -35.16203 | 138.24856 | 6999 ft | 204 kts | 229° |
| 2026-05-04 05:40 | -35.17153 | 138.23576 | 7001 ft | 203 kts | 229° |
| 2026-05-04 05:40 | -35.18102 | 138.22296 | 6998 ft | 203 kts | 229° |
| 2026-05-04 05:41 | -35.19037 | 138.21035 | 6997 ft | 203 kts | 230° |
| 2026-05-04 05:41 | -35.19985 | 138.19755 | 6999 ft | 203 kts | 229° |
| 2026-05-04 05:41 | -35.20931 | 138.18477 | 7002 ft | 203 kts | 229° |
| 2026-05-04 05:41 | -35.21875 | 138.17201 | 6998 ft | 202 kts | 229° |
| 2026-05-04 05:42 | -35.22821 | 138.15924 | 7005 ft | 203 kts | 230° |
| 2026-05-04 05:42 | -35.23772 | 138.14639 | 6999 ft | 204 kts | 229° |
| 2026-05-04 05:42 | -35.24721 | 138.13355 | 7001 ft | 204 kts | 230° |
| 2026-05-04 05:42 | -35.25667 | 138.12074 | 7001 ft | 203 kts | 229° |
| 2026-05-04 05:43 | -35.26614 | 138.10793 | 7006 ft | 203 kts | 229° |
| 2026-05-04 05:43 | -35.27564 | 138.09507 | 7001 ft | 203 kts | 229° |
| 2026-05-04 05:43 | -35.28512 | 138.08223 | 6997 ft | 203 kts | 229° |
| 2026-05-04 05:45 | -35.35124 | 137.99254 | 7003 ft | 203 kts | 229° |
| 2026-05-04 05:45 | -35.36102 | 137.98020 | 6998 ft | 201 kts | 227° |
| 2026-05-04 05:47 | -35.42895 | 137.89199 | 7002 ft | 204 kts | 228° |
| 2026-05-04 05:47 | -35.43861 | 137.87951 | 7004 ft | 204 kts | 228° |
| 2026-05-04 05:47 | -35.44836 | 137.86690 | 7011 ft | 204 kts | 228° |
| 2026-05-04 05:48 | -35.45818 | 137.85420 | 7001 ft | 204 kts | 228° |
| 2026-05-04 05:48 | -35.46795 | 137.84155 | 7002 ft | 205 kts | 228° |
| 2026-05-04 05:48 | -35.47775 | 137.82888 | 7001 ft | 205 kts | 228° |
| 2026-05-04 05:48 | -35.48768 | 137.81600 | 6759 ft | 214 kts | 228° |
| 2026-05-04 05:49 | -35.49811 | 137.80247 | 6389 ft | 221 kts | 228° |
| 2026-05-04 05:49 | -35.50873 | 137.78871 | 6008 ft | 223 kts | 227° |
| 2026-05-04 05:49 | -35.51941 | 137.77488 | 5632 ft | 223 kts | 227° |
| 2026-05-04 05:49 | -35.53010 | 137.76101 | 5257 ft | 223 kts | 227° |
| 2026-05-04 05:51 | -35.60234 | 137.66466 | 2603 ft | 214 kts | 229° |
| 2026-05-04 05:51 | -35.61196 | 137.65069 | 2220 ft | 214 kts | 229° |
| 2026-05-04 05:52 | -35.62143 | 137.63688 | 1843 ft | 214 kts | 229° |
| 2026-05-04 05:52 | -35.63093 | 137.62290 | 1513 ft | 210 kts | 230° |
| 2026-05-04 05:52 | -35.64004 | 137.60955 | 1496 ft | 200 kts | 230° |
| 2026-05-04 05:52 | -35.64875 | 137.59675 | 1492 ft | 190 kts | 230° |
| 2026-05-04 05:53 | -35.65883 | 137.58733 | 1494 ft | 179 kts | 209° |
| 2026-05-04 05:54 | -35.73428 | 137.56726 | 1898 ft | 148 kts | 189° |
| 2026-05-04 05:55 | -35.74448 | 137.56659 | 1874 ft | 144 kts | 187° |
| 2026-05-04 05:55 | -35.75244 | 137.56265 | 1931 ft | 117 kts | 224° |
| 2026-05-04 05:55 | -35.75622 | 137.55370 | 1728 ft | 122 kts | 251° |
| 2026-05-04 05:55 | -35.75706 | 137.54313 | 1444 ft | 124 kts | 266° |
| 2026-05-04 05:56 | -35.75558 | 137.53309 | 1301 ft | 117 kts | 283° |
| 2026-05-04 05:56 | -35.75217 | 137.52411 | 1194 ft | 118 kts | 307° |
| 2026-05-04 05:56 | -35.74530 | 137.51766 | 936 ft | 133 kts | 341° |
| 2026-05-04 05:56 | -35.73597 | 137.51616 | 582 ft | 139 kts | 11° |
| 2026-05-04 05:57 | -35.72722 | 137.51997 | 195 ft | 125 kts | 21° |
| 2026-05-04 05:57 | -35.71982 | 137.52355 | 35 ft | 102 kts | 18° |
| 2026-05-04 05:57 | -35.71590 | 137.52540 | 28 ft | 20 kts | 21° |
| 2026-05-04 05:57 | -35.71424 | 137.52619 | 28 ft | 31 kts | 21° |
| 2026-05-04 05:58 | -35.71259 | 137.52699 | 28 ft | 26 kts | 21° |
| 2026-05-04 05:58 | -35.71107 | 137.52724 | 29 ft | 12 kts | 349° |
| 2026-05-04 05:58 | -35.71063 | 137.52615 | 28 ft | 19 kts | 274° |
| 2026-05-04 05:58 | -35.71049 | 137.52464 | 29 ft | 17 kts | 275° |
| 2026-05-04 05:59 | -35.71021 | 137.52377 | 29 ft | 8 kts | 305° |
| 2026-05-04 05:59 | -35.70999 | 137.52342 | 29 ft | 2 kts | 325° |
| 2026-05-04 05:59 | -35.70983 | 137.52364 | 29 ft | 1 kts | 51° |